createdAt,value
2018-09-03T00:02:25.276Z,4.93
2018-09-03T00:04:53.652Z,4.67
2018-09-03T00:07:22.078Z,5.20
2018-09-03T00:09:50.475Z,4.43
2018-09-03T00:12:18.825Z,5.30
2018-09-03T00:14:47.296Z,6.50
2018-09-03T00:17:15.642Z,5.20
2018-09-03T00:19:43.962Z,5.40
2018-09-03T00:22:12.263Z,4.23
2018-09-03T00:24:40.740Z,6.10
2018-09-03T00:27:09.070Z,5.30
2018-09-03T00:29:37.339Z,5.80
2018-09-03T00:32:10.277Z,6.10
2018-09-03T00:34:42.725Z,5.40
2018-09-03T00:37:15.202Z,5.40
2018-09-03T00:39:47.646Z,6.37
2018-09-03T00:42:21.693Z,5.13
2018-09-03T00:44:54.198Z,5.43
2018-09-03T00:47:22.504Z,5.20
2018-09-03T00:49:50.848Z,4.57
2018-09-03T00:52:19.464Z,5.63
2018-09-03T00:54:47.807Z,5.30
2018-09-03T00:57:16.161Z,5.67
2018-09-03T00:59:44.485Z,5.17
2018-09-03T01:02:13.258Z,6.43
2018-09-03T01:04:41.503Z,4.90
2018-09-03T01:07:09.919Z,6.67
2018-09-03T01:09:38.221Z,5.50
2018-09-03T01:12:06.725Z,4.87
2018-09-03T01:14:35.054Z,5.80
2018-09-03T01:17:03.393Z,5.93
2018-09-03T01:19:31.734Z,5.03
2018-09-03T01:22:00.108Z,6.33
2018-09-03T01:24:28.566Z,5.23
2018-09-03T01:26:56.815Z,5.27
2018-09-03T01:29:25.273Z,5.80
2018-09-03T01:31:56.994Z,6.13
2018-09-03T01:34:26.399Z,5.47
2018-09-03T01:36:54.709Z,5.80
2018-09-03T01:39:23.786Z,5.23
2018-09-03T01:41:52.058Z,4.70
2018-09-03T01:44:20.337Z,5.60
2018-09-03T01:46:48.720Z,6.83
2018-09-03T01:49:17.128Z,5.50
2018-09-03T01:51:45.819Z,5.37
2018-09-03T01:54:14.091Z,6.90
2018-09-03T01:56:42.460Z,6.03
2018-09-03T01:59:10.815Z,5.00
2018-09-03T02:01:39.134Z,5.80
2018-09-03T02:04:07.506Z,5.87
2018-09-03T02:06:35.894Z,5.80
2018-09-03T02:09:07.796Z,5.63
2018-09-03T02:11:36.120Z,5.90
2018-09-03T02:14:04.398Z,6.07
2018-09-03T02:16:33.987Z,6.00
2018-09-03T02:19:02.207Z,6.20
2018-09-03T02:21:30.528Z,5.63
2018-09-03T02:23:58.792Z,5.93
2018-09-03T02:26:27.067Z,4.97
2018-09-03T02:28:55.425Z,4.80
2018-09-03T02:31:24.282Z,7.00
2018-09-03T02:33:53.316Z,5.40
2018-09-03T02:36:21.781Z,6.47
2018-09-03T02:38:50.490Z,5.53
2018-09-03T02:41:19.595Z,4.97
2018-09-03T02:43:47.973Z,5.87
2018-09-03T02:46:16.650Z,5.60
2018-09-03T02:48:45.442Z,6.43
2018-09-03T02:51:14.319Z,5.50
2018-09-03T02:53:43.063Z,5.37
2018-09-03T02:56:11.788Z,5.30
2018-09-03T02:58:40.396Z,6.00
2018-09-03T03:01:09.474Z,5.50
2018-09-03T03:03:38.157Z,5.90
2018-09-03T03:06:07.128Z,6.40
2018-09-03T03:08:35.608Z,5.97
2018-09-03T03:11:04.252Z,5.80
2018-09-03T03:13:32.822Z,6.20
2018-09-03T03:16:01.466Z,4.83
2018-09-03T03:18:30.203Z,6.30
2018-09-03T03:20:59.072Z,6.47
2018-09-03T03:23:27.373Z,6.03
2018-09-03T03:25:55.685Z,5.80
2018-09-03T03:28:24.052Z,6.07
2018-09-03T03:30:52.435Z,6.20
2018-09-03T03:33:20.808Z,5.67
2018-09-03T03:35:49.269Z,6.87
2018-09-03T03:38:17.591Z,7.20
2018-09-03T03:40:45.897Z,6.90
2018-09-03T03:43:14.405Z,6.10
2018-09-03T03:45:42.962Z,5.93
2018-09-03T03:48:11.217Z,6.53
2018-09-03T03:50:39.641Z,7.17
2018-09-03T03:53:07.996Z,5.87
2018-09-03T03:55:36.232Z,6.80
2018-09-03T03:58:04.528Z,7.20
2018-09-03T04:00:33.000Z,8.00
2018-09-03T04:03:01.533Z,7.50
2018-09-03T04:05:29.817Z,8.27
2018-09-03T04:07:58.111Z,9.30
2018-09-03T04:10:26.498Z,8.70
2018-09-03T04:12:57.749Z,8.70
2018-09-03T04:15:26.267Z,8.60
2018-09-03T04:17:54.836Z,8.03
2018-09-03T04:20:23.169Z,9.17
2018-09-03T04:22:51.686Z,9.17
2018-09-03T04:25:20.020Z,9.43
2018-09-03T04:27:48.406Z,9.30
2018-09-03T04:30:16.948Z,9.40
2018-09-03T04:32:45.340Z,8.87
2018-09-03T04:35:14.071Z,9.50
2018-09-03T04:37:42.338Z,11.20
2018-09-03T04:40:10.677Z,11.27
2018-09-03T04:42:39.218Z,11.43
2018-09-03T04:45:07.577Z,9.87
2018-09-03T04:47:36.032Z,9.20
2018-09-03T04:50:04.457Z,12.60
2018-09-03T04:52:32.774Z,12.10
2018-09-03T04:55:01.108Z,12.20
2018-09-03T04:57:29.435Z,10.40
2018-09-03T04:59:57.858Z,10.40
2018-09-03T05:02:26.345Z,9.30
2018-09-03T05:04:54.957Z,10.90
2018-09-03T05:07:23.337Z,9.87
2018-09-03T05:09:51.774Z,7.90
2018-09-03T05:12:20.065Z,9.13
2018-09-03T05:14:48.501Z,9.67
2018-09-03T05:17:16.877Z,7.43
2018-09-03T05:19:45.219Z,8.70
2018-09-03T05:22:13.655Z,7.37
2018-09-03T05:24:42.160Z,8.57
2018-09-03T05:27:10.494Z,8.07
2018-09-03T05:29:38.838Z,8.20
2018-09-03T05:32:07.248Z,9.00
2018-09-03T05:34:35.572Z,8.37
2018-09-03T05:37:03.889Z,9.60
2018-09-03T05:39:32.244Z,8.40
2018-09-03T05:42:00.574Z,7.73
2018-09-03T05:44:28.995Z,7.87
2018-09-03T05:46:57.362Z,7.87
2018-09-03T05:49:25.776Z,8.20
2018-09-03T05:51:54.126Z,7.90
2018-09-03T05:54:22.542Z,9.00
2018-09-03T05:56:50.866Z,8.53
2018-09-03T05:59:19.569Z,8.10
2018-09-03T06:01:47.997Z,8.20
2018-09-03T06:04:16.266Z,8.93
2018-09-03T06:06:44.598Z,9.03
2018-09-03T06:09:13.347Z,8.57
2018-09-03T06:11:41.924Z,8.50
2018-09-03T06:14:10.208Z,8.13
2018-09-03T06:16:38.536Z,8.93
2018-09-03T06:19:06.855Z,8.50
2018-09-03T06:21:35.169Z,8.53
2018-09-03T06:24:03.495Z,8.40
2018-09-03T06:26:31.850Z,8.70
2018-09-03T06:29:00.268Z,7.40
2018-09-03T06:31:29.422Z,8.23
2018-09-03T06:33:57.745Z,8.17
2018-09-03T06:36:26.091Z,8.10
2018-09-03T06:38:54.448Z,8.10
2018-09-03T06:41:23.221Z,8.63
2018-09-03T06:43:51.540Z,8.00
2018-09-03T06:46:19.823Z,8.50
2018-09-03T06:48:48.499Z,9.10
2018-09-03T06:51:16.894Z,8.90
2018-09-03T06:53:45.286Z,10.40
2018-09-03T06:56:13.676Z,9.27
2018-09-03T06:58:42.153Z,9.47
2018-09-03T07:01:10.990Z,9.57
2018-09-03T07:03:39.242Z,9.30
2018-09-03T07:06:07.600Z,10.10
2018-09-03T07:08:36.638Z,8.97
2018-09-03T07:11:05.247Z,8.90
2018-09-03T07:13:33.589Z,9.90
2018-09-03T07:16:01.977Z,8.43
2018-09-03T07:18:30.362Z,8.57
2018-09-03T07:20:58.616Z,9.27
2018-09-03T07:23:27.123Z,9.60
2018-09-03T07:25:55.477Z,11.43
2018-09-03T07:28:23.866Z,10.20
2018-09-03T07:30:52.311Z,10.50
2018-09-03T07:33:20.636Z,10.30
2018-09-03T07:35:49.012Z,9.33
2018-09-03T07:38:17.573Z,9.63
2018-09-03T07:40:46.552Z,9.00
2018-09-03T07:43:14.851Z,9.17
2018-09-03T07:45:43.330Z,9.33
2018-09-03T07:48:11.643Z,8.60
2018-09-03T07:50:40.302Z,8.53
2018-09-03T07:53:08.749Z,8.30
2018-09-03T07:55:37.157Z,8.43
2018-09-03T07:58:06.183Z,8.50
2018-09-03T08:00:34.644Z,8.77
2018-09-03T08:03:03.024Z,8.47
2018-09-03T08:05:31.375Z,8.97
2018-09-03T08:07:59.764Z,7.93
2018-09-03T08:10:28.119Z,8.67
2018-09-03T08:12:57.167Z,8.30
2018-09-03T08:15:25.830Z,8.30
2018-09-03T08:17:54.175Z,9.17
2018-09-03T08:20:22.643Z,7.77
2018-09-03T08:22:51.029Z,9.13
2018-09-03T08:25:19.384Z,9.60
2018-09-03T08:27:48.311Z,7.87
2018-09-03T08:30:16.737Z,9.03
2018-09-03T08:32:45.113Z,8.47
2018-09-03T08:35:13.487Z,8.40
2018-09-03T08:37:41.847Z,8.80
2018-09-03T08:40:10.312Z,8.23
2018-09-03T08:42:39.026Z,8.33
2018-09-03T08:45:07.366Z,8.73
2018-09-03T08:47:35.673Z,8.13
2018-09-03T08:50:04.038Z,8.53
2018-09-03T08:52:32.432Z,8.50
2018-09-03T08:55:00.809Z,8.30
2018-09-03T08:57:29.257Z,9.10
2018-09-03T08:59:57.721Z,8.30
2018-09-03T09:02:26.081Z,8.00
2018-09-03T09:04:54.538Z,7.70
2018-09-03T09:07:22.889Z,8.17
2018-09-03T09:09:51.368Z,8.70
2018-09-03T09:12:19.852Z,8.17
2018-09-03T09:14:48.193Z,8.00
2018-09-03T09:17:16.602Z,7.87
2018-09-03T09:19:45.078Z,7.47
2018-09-03T09:22:13.518Z,7.23
2018-09-03T09:24:41.963Z,7.60
2018-09-03T09:27:10.310Z,8.07
2018-09-03T09:29:38.970Z,7.57
2018-09-03T09:32:07.522Z,8.17
2018-09-03T09:34:35.967Z,8.17
2018-09-03T09:37:04.680Z,9.13
2018-09-03T09:39:33.073Z,8.30
2018-09-03T09:42:01.481Z,8.80
2018-09-03T09:44:29.885Z,9.23
2018-09-03T09:46:58.568Z,9.93
2018-09-03T09:49:26.914Z,10.20
2018-09-03T09:51:56.334Z,9.50
2018-09-03T09:54:24.815Z,10.43
2018-09-03T09:56:53.236Z,10.93
2018-09-03T09:59:22.029Z,10.87
2018-09-03T10:01:50.326Z,10.40
2018-09-03T10:04:18.747Z,10.30
2018-09-03T10:06:47.195Z,10.80
2018-09-03T10:09:15.542Z,9.33
2018-09-03T10:11:43.891Z,9.93
2018-09-03T10:14:12.296Z,9.90
2018-09-03T10:16:40.660Z,9.90
2018-09-03T10:19:09.043Z,9.73
2018-09-03T10:21:37.457Z,10.70
2018-09-03T10:24:05.855Z,9.57
2018-09-03T10:26:34.345Z,10.70
2018-09-03T10:29:02.692Z,10.80
2018-09-03T10:31:31.351Z,10.60
2018-09-03T10:33:59.997Z,11.17
2018-09-03T10:36:28.464Z,11.47
2018-09-03T10:38:56.954Z,10.97
2018-09-03T10:41:25.677Z,11.80
2018-09-03T10:43:54.438Z,12.10
2018-09-03T10:46:23.783Z,12.57
2018-09-03T10:48:52.499Z,11.73
2018-09-03T10:51:21.327Z,11.77
2018-09-03T10:53:49.772Z,12.73
2018-09-03T10:56:18.522Z,12.63
2018-09-03T10:58:46.915Z,11.87
2018-09-03T11:01:15.578Z,11.77
2018-09-03T11:03:44.337Z,12.40
2018-09-03T11:06:13.562Z,14.27
2018-09-03T11:08:41.918Z,12.73
2018-09-03T11:11:11.113Z,13.57
2018-09-03T11:13:39.539Z,13.33
2018-09-03T11:16:08.025Z,12.03
2018-09-03T11:18:36.376Z,12.17
2018-09-03T11:21:05.033Z,12.70
2018-09-03T11:23:33.412Z,11.97
2018-09-03T11:26:01.760Z,13.00
2018-09-03T11:28:30.081Z,11.50
2018-09-03T11:30:58.693Z,12.40
2018-09-03T11:33:27.010Z,13.17
2018-09-03T11:35:55.373Z,12.10
2018-09-03T11:38:23.903Z,13.30
2018-09-03T11:40:52.819Z,12.90
2018-09-03T11:43:21.090Z,13.20
2018-09-03T11:45:49.475Z,12.80
2018-09-03T11:48:18.012Z,13.37
2018-09-03T11:50:46.517Z,13.07
2018-09-03T11:53:14.885Z,13.30
2018-09-03T11:55:43.469Z,13.80
2018-09-03T11:58:12.787Z,14.30
2018-09-03T12:00:41.142Z,13.10
2018-09-03T12:03:09.519Z,13.53
2018-09-03T12:05:37.916Z,11.87
2018-09-03T12:08:06.362Z,14.03
2018-09-03T12:10:34.717Z,15.20
2018-09-03T12:13:03.050Z,13.40
2018-09-03T12:15:35.838Z,13.73
2018-09-03T12:18:04.210Z,13.23
2018-09-03T12:20:32.657Z,13.20
2018-09-03T12:23:01.065Z,14.67
2018-09-03T12:25:29.404Z,14.73
2018-09-03T12:27:58.510Z,15.07
2018-09-03T12:30:26.873Z,17.30
2018-09-03T12:32:55.579Z,16.13
2018-09-03T12:35:24.182Z,15.73
2018-09-03T12:37:53.475Z,16.40
2018-09-03T12:40:23.183Z,15.20
2018-09-03T12:42:52.454Z,17.87
2018-09-03T12:45:24.899Z,16.80
2018-09-03T12:47:53.916Z,18.13
2018-09-03T12:50:22.823Z,18.00
2018-09-03T12:52:51.098Z,18.23
2018-09-03T12:55:20.736Z,18.70
2018-09-03T12:57:49.382Z,17.13
2018-09-03T13:00:21.622Z,18.70
2018-09-03T13:02:54.774Z,17.50
2018-09-03T13:05:23.067Z,18.87
2018-09-03T13:07:51.415Z,17.90
2018-09-03T13:10:20.595Z,18.03
2018-09-03T13:12:49.148Z,18.70
2018-09-03T13:15:17.604Z,18.83
2018-09-03T13:17:46.444Z,17.67
2018-09-03T13:20:14.734Z,17.93
2018-09-03T13:22:43.911Z,19.87
2018-09-03T13:25:12.205Z,19.13
2018-09-03T13:27:41.472Z,18.83
2018-09-03T13:30:10.609Z,18.37
2018-09-03T13:32:39.056Z,19.00
2018-09-03T13:35:07.492Z,16.33
2018-09-03T13:37:36.575Z,17.60
2018-09-03T13:40:06.316Z,17.47
2018-09-03T13:42:34.669Z,20.80
2018-09-03T13:45:03.181Z,19.53
2018-09-03T13:47:31.639Z,19.57
2018-09-03T13:49:59.962Z,18.30
2018-09-03T13:52:28.298Z,18.90
2018-09-03T13:54:57.054Z,19.60
2018-09-03T13:57:25.342Z,18.50
2018-09-03T13:59:53.776Z,18.53
2018-09-03T14:02:22.121Z,18.17
2018-09-03T14:04:50.773Z,19.07
2018-09-03T14:07:19.101Z,19.07
2018-09-03T14:09:48.163Z,20.30
2018-09-03T14:12:16.638Z,21.07
2018-09-03T14:14:45.148Z,19.77
2018-09-03T14:17:13.680Z,21.33
2018-09-03T14:19:42.263Z,20.50
2018-09-03T14:22:10.901Z,17.70
2018-09-03T14:24:39.378Z,19.13
2018-09-03T14:27:09.149Z,20.47
2018-09-03T14:29:37.872Z,20.30
2018-09-03T14:32:06.423Z,19.67
2018-09-03T14:34:34.936Z,20.47
2018-09-03T14:37:03.314Z,18.90
2018-09-03T14:39:31.699Z,21.20
2018-09-03T14:42:00.924Z,20.30
2018-09-03T14:44:29.406Z,19.90
2018-09-03T14:46:57.870Z,19.70
2018-09-03T14:49:26.560Z,20.90
2018-09-03T14:51:55.015Z,22.43
2018-09-03T14:54:23.691Z,21.47
2018-09-03T14:56:52.111Z,19.77
2018-09-03T14:59:20.549Z,20.20
2018-09-03T15:01:48.932Z,21.07
2018-09-03T15:04:17.414Z,21.97
2018-09-03T15:06:45.796Z,20.50
2018-09-03T15:09:14.599Z,22.30
2018-09-03T15:11:43.000Z,22.10
2018-09-03T15:14:11.484Z,22.77
2018-09-03T15:16:39.953Z,21.10
2018-09-03T15:19:08.281Z,22.97
2018-09-03T15:21:36.746Z,22.40
2018-09-03T15:24:06.525Z,21.50
2018-09-03T15:26:35.498Z,21.43
2018-09-03T15:29:03.844Z,22.90
2018-09-03T15:31:32.425Z,22.97
2018-09-03T15:34:00.846Z,23.07
2018-09-03T15:36:29.434Z,22.27
2018-09-03T15:38:57.644Z,21.33
2018-09-03T15:41:26.118Z,21.77
2018-09-03T15:43:54.472Z,22.10
2018-09-03T15:46:22.891Z,24.57
2018-09-03T15:48:51.342Z,24.77
2018-09-03T15:51:20.154Z,25.00
2018-09-03T15:53:48.737Z,24.70
2018-09-03T15:56:18.940Z,24.87
2018-09-03T15:58:47.256Z,25.70
2018-09-03T16:01:20.285Z,24.80
2018-09-03T16:03:48.884Z,25.77
2018-09-03T16:06:17.256Z,24.83
2018-09-03T16:08:45.759Z,25.77
2018-09-03T16:11:14.820Z,27.20
2018-09-03T16:13:43.221Z,26.93
2018-09-03T16:16:11.880Z,26.93
2018-09-03T16:18:40.389Z,26.07
2018-09-03T16:21:08.784Z,26.93
2018-09-03T16:23:37.214Z,26.20
2018-09-03T16:26:05.730Z,26.90
2018-09-03T16:28:37.068Z,25.17
2018-09-03T16:31:05.871Z,27.33
2018-09-03T16:33:34.430Z,26.57
2018-09-03T16:36:04.140Z,25.70
2018-09-03T16:38:36.386Z,27.53
2018-09-03T16:41:04.718Z,26.33
2018-09-03T16:43:33.368Z,25.80
2018-09-03T16:46:01.741Z,26.10
2018-09-03T16:48:30.142Z,26.70
2018-09-03T16:50:58.556Z,26.60
2018-09-03T16:53:26.918Z,25.90
2018-09-03T16:55:55.383Z,28.17
2018-09-03T16:58:23.857Z,28.43
2018-09-03T17:00:52.866Z,26.00
2018-09-03T17:03:21.543Z,26.43
2018-09-03T17:05:49.962Z,27.83
2018-09-03T17:08:18.649Z,26.93
2018-09-03T17:10:47.087Z,25.70
2018-09-03T17:13:15.450Z,26.80
2018-09-03T17:15:44.002Z,28.07
2018-09-03T17:18:12.432Z,28.67
2018-09-03T17:20:41.757Z,26.60
2018-09-03T17:23:10.300Z,26.40
2018-09-03T17:25:42.004Z,27.77
2018-09-03T17:28:12.867Z,25.27
2018-09-03T17:30:41.420Z,28.53
2018-09-03T17:33:10.355Z,27.50
2018-09-03T17:35:39.742Z,27.17
2018-09-03T17:38:08.300Z,28.80
2018-09-03T17:40:36.803Z,28.87
2018-09-03T17:43:05.212Z,26.20
2018-09-03T17:45:33.587Z,28.70
2018-09-03T17:48:02.354Z,27.80
2018-09-03T17:50:31.116Z,28.90
2018-09-03T17:52:59.633Z,28.40
2018-09-03T17:55:28.265Z,30.40
2018-09-03T17:57:57.169Z,30.17
2018-09-03T18:00:25.798Z,28.20
2018-09-03T18:02:55.486Z,28.93
2018-09-03T18:05:24.166Z,28.00
2018-09-03T18:07:53.333Z,29.20
2018-09-03T18:10:21.820Z,28.10
2018-09-03T18:12:50.233Z,29.00
2018-09-03T18:15:18.816Z,30.00
2018-09-03T18:17:47.414Z,31.10
2018-09-03T18:20:15.826Z,29.43
2018-09-03T18:22:44.425Z,29.47
2018-09-03T18:25:12.875Z,30.70
2018-09-03T18:27:41.707Z,30.60
2018-09-03T18:30:11.012Z,29.63
2018-09-03T18:32:40.613Z,30.13
2018-09-03T18:35:09.874Z,28.10
2018-09-03T18:37:38.482Z,29.87
2018-09-03T18:40:07.635Z,30.37
2018-09-03T18:42:37.321Z,29.70
2018-09-03T18:45:06.787Z,30.87
2018-09-03T18:47:35.618Z,30.90
2018-09-03T18:50:04.355Z,32.17
2018-09-03T18:52:33.241Z,31.27
2018-09-03T18:55:01.806Z,32.60
2018-09-03T18:57:30.499Z,31.47
2018-09-03T18:59:59.284Z,30.90
2018-09-03T19:02:28.330Z,31.00
2018-09-03T19:04:56.869Z,30.60
2018-09-03T19:07:25.884Z,30.57
2018-09-03T19:09:54.307Z,31.33
2018-09-03T19:12:23.311Z,29.70
2018-09-03T19:14:52.093Z,31.20
2018-09-03T19:17:20.705Z,31.50
2018-09-03T19:19:49.466Z,31.30
2018-09-03T19:22:18.245Z,31.00
2018-09-03T19:24:46.622Z,30.93
2018-09-03T19:27:15.028Z,30.43
2018-09-03T19:29:43.429Z,30.33
2018-09-03T19:32:11.849Z,29.67
2018-09-03T19:34:41.619Z,30.70
2018-09-03T19:37:10.286Z,30.40
2018-09-03T19:39:39.022Z,33.67
2018-09-03T19:42:07.516Z,33.07
2018-09-03T19:44:36.413Z,31.57
2018-09-03T19:47:04.770Z,32.83
2018-09-03T19:49:33.620Z,32.20
2018-09-03T19:52:02.628Z,31.47
2018-09-03T19:54:31.359Z,32.00
2018-09-03T19:57:00.035Z,32.23
2018-09-03T19:59:28.830Z,33.60
2018-09-03T20:01:57.293Z,33.00
2018-09-03T20:04:25.760Z,33.97
2018-09-03T20:06:54.344Z,30.77
2018-09-03T20:09:22.745Z,33.13
2018-09-03T20:11:51.140Z,30.80
2018-09-03T20:14:19.762Z,30.70
2018-09-03T20:16:48.181Z,31.80
2018-09-03T20:19:16.878Z,31.20
2018-09-03T20:21:45.437Z,35.33
2018-09-03T20:24:13.853Z,32.97
2018-09-03T20:26:43.432Z,32.40
2018-09-03T20:29:11.887Z,31.50
2018-09-03T20:31:40.354Z,31.80
2018-09-03T20:34:08.742Z,32.50
2018-09-03T20:36:37.065Z,32.23
2018-09-03T20:39:06.191Z,31.10
2018-09-03T20:41:35.551Z,32.10
2018-09-03T20:44:04.252Z,33.37
2018-09-03T20:46:32.632Z,32.53
2018-09-03T20:49:00.996Z,31.83
2018-09-03T20:51:29.429Z,32.23
2018-09-03T20:53:57.764Z,32.90
2018-09-03T20:56:26.227Z,31.87
2018-09-03T20:58:54.626Z,39.40
2018-09-03T21:01:23.155Z,32.60
2018-09-03T21:03:51.708Z,32.40
2018-09-03T21:06:20.165Z,34.43
2018-09-03T21:08:48.450Z,33.10
2018-09-03T21:11:16.846Z,35.80
2018-09-03T21:13:45.203Z,31.37
2018-09-03T21:16:13.480Z,34.90
2018-09-03T21:18:41.915Z,34.03
2018-09-03T21:21:10.324Z,35.50
2018-09-03T21:23:38.730Z,38.00
2018-09-03T21:26:07.119Z,35.90
2018-09-03T21:28:35.631Z,40.40
2018-09-03T21:31:03.949Z,36.90
2018-09-03T21:33:32.471Z,41.20
2018-09-03T21:36:00.793Z,39.70
2018-09-03T21:38:29.140Z,36.03
2018-09-03T21:40:57.440Z,37.90
2018-09-03T21:43:25.826Z,38.20
2018-09-03T21:45:54.152Z,38.23
2018-09-03T21:48:22.654Z,41.43
2018-09-03T21:50:50.993Z,40.63
2018-09-03T21:53:19.492Z,43.10
2018-09-03T21:55:48.442Z,47.27
2018-09-03T21:58:16.769Z,47.13
2018-09-03T22:00:45.455Z,52.37
2018-09-03T22:03:13.857Z,48.87
2018-09-03T22:05:42.399Z,51.43
2018-09-03T22:08:11.053Z,46.40
2018-09-03T22:10:39.329Z,52.37
2018-09-03T22:13:07.944Z,46.10
2018-09-03T22:15:36.252Z,43.97
2018-09-03T22:18:04.604Z,40.23
2018-09-03T22:20:33.043Z,40.77
2018-09-03T22:23:01.359Z,41.53
2018-09-03T22:25:29.690Z,40.40
2018-09-03T22:27:58.088Z,39.90
2018-09-03T22:30:26.579Z,39.67
2018-09-03T22:32:54.963Z,39.57
2018-09-03T22:35:23.365Z,39.63
2018-09-03T22:37:51.699Z,44.37
2018-09-03T22:40:21.888Z,41.50
2018-09-03T22:42:50.729Z,43.50
2018-09-03T22:45:19.072Z,42.77
2018-09-03T22:47:47.595Z,44.37
2018-09-03T22:50:15.943Z,45.50
2018-09-03T22:52:44.397Z,42.80
2018-09-03T22:55:12.694Z,45.50
2018-09-03T22:57:41.099Z,45.83
2018-09-03T23:00:09.520Z,47.07
2018-09-03T23:02:41.967Z,46.47
2018-09-03T23:05:10.468Z,48.17
2018-09-03T23:07:38.923Z,45.80
2018-09-03T23:10:07.387Z,46.67
2018-09-03T23:12:35.744Z,44.17
2018-09-03T23:15:04.225Z,45.37
2018-09-03T23:17:32.806Z,45.83
2018-09-03T23:20:01.315Z,45.50
2018-09-03T23:22:29.611Z,45.60
2018-09-03T23:24:58.014Z,43.77
2018-09-03T23:27:26.453Z,45.17
2018-09-03T23:29:54.836Z,47.80
2018-09-03T23:32:23.307Z,45.47
2018-09-03T23:34:51.773Z,43.30
2018-09-03T23:37:20.460Z,46.37
2018-09-03T23:39:49.250Z,47.87
2018-09-03T23:42:17.656Z,48.00
2018-09-03T23:44:45.975Z,45.97
2018-09-03T23:47:14.373Z,48.00
2018-09-03T23:49:42.725Z,47.97
2018-09-03T23:52:11.068Z,48.43
2018-09-03T23:54:39.371Z,51.33
2018-09-03T23:57:07.664Z,49.00
2018-09-03T23:59:36.103Z,48.93
